Pierrepont Manor, New York
Current Conditions -  °F | °C
As of 4:56 PM on Friday 24 Oct 2014 (Local Time) from KART Reporting Station
Clear Clear  
Wind Chill: 57°   Ceiling: Unl
Heat Index: 57°   Visibility: 10mi
Dew Point: 44°   Wind: 12mph
Humidity: 62%   Direction: 240°WSW
Pressure: 29.87"   Gusts: NA
Location:  43.73°N, 76.06°W
Report Text: KART 242056Z AUTO 24010KT 10SM CLR 14/07 A2987 RMK AO2 SLP116 T01390067 58004
Loading
Personal Weather Stations






























Interactive Weather Map
Tropical Storm Tracking
New forecast layout! Learn more

10-Day Weather Forecast

Advertisements
Track Severe Weather on mobile